createdAt,value
2022-10-30T00:00:19.285Z,17.8
2022-10-30T00:02:21.217Z,17.6
2022-10-30T00:04:22.949Z,17.7
2022-10-30T00:06:24.778Z,17.7
2022-10-30T00:08:26.609Z,17.6
2022-10-30T00:10:31.817Z,17.6
2022-10-30T00:12:33.523Z,17.7
2022-10-30T00:14:35.337Z,17.6
2022-10-30T00:16:37.177Z,17.7
2022-10-30T00:18:38.989Z,17.6
2022-10-30T00:20:40.821Z,17.7
2022-10-30T00:22:42.656Z,17.5
2022-10-30T00:24:47.742Z,17.5
2022-10-30T00:26:49.592Z,17.4
2022-10-30T00:32:55.400Z,17.2
2022-10-30T00:34:56.906Z,17.2
2022-10-30T00:39:03.786Z,17.2
2022-10-30T00:41:05.606Z,17.3
2022-10-30T00:43:07.414Z,17.4
2022-10-30T00:44:09.964Z,17.3
2022-10-30T00:46:11.810Z,17.5
2022-10-30T00:48:13.641Z,17.4
2022-10-30T00:50:15.543Z,17.4
2022-10-30T00:52:20.559Z,17.1
2022-10-30T00:54:22.391Z,17.2
2022-10-30T00:56:24.222Z,17.3
2022-10-30T00:58:26.023Z,17.2
2022-10-30T01:00:27.875Z,17.4
2022-10-30T01:02:31.445Z,17.2
2022-10-30T01:04:33.042Z,17.4
2022-10-30T01:06:38.083Z,17.3
2022-10-30T01:08:40.069Z,17.2
2022-10-30T01:10:41.743Z,17.2
2022-10-30T01:12:43.577Z,17.3
2022-10-30T01:14:45.421Z,17.3
2022-10-30T01:16:47.233Z,17.3
2022-10-30T01:18:49.052Z,17.2
2022-10-30T01:20:54.218Z,17.1
2022-10-30T01:22:56.397Z,17.2
2022-10-30T01:24:57.817Z,17.2
2022-10-30T01:26:59.662Z,16.9
2022-10-30T01:29:01.517Z,17
2022-10-30T01:31:03.321Z,16.9
2022-10-30T01:33:05.147Z,16.8
2022-10-30T01:35:10.230Z,16.7
2022-10-30T01:37:12.065Z,16.9
2022-10-30T01:39:13.901Z,16.6
2022-10-30T01:40:16.430Z,16.7
2022-10-30T01:42:18.243Z,16.7
2022-10-30T01:44:20.086Z,16.7
2022-10-30T01:46:21.914Z,16.7
2022-10-30T01:48:27.020Z,16.6
2022-10-30T01:50:28.830Z,16.5
2022-10-30T01:52:30.675Z,16.5
2022-10-30T01:54:32.522Z,16.5
2022-10-30T01:56:34.487Z,16.5
2022-10-30T01:58:36.151Z,16.3
2022-10-30T02:00:37.991Z,16.4
2022-10-30T02:02:43.139Z,16.1
2022-10-30T02:06:46.708Z,15.9
2022-10-30T02:08:48.537Z,15.9
2022-10-30T02:10:50.370Z,15.8
2022-10-30T02:12:52.189Z,15.8
2022-10-30T02:14:54.043Z,15.9
2022-10-30T02:16:59.113Z,15.7
2022-10-30T02:19:00.940Z,15.6
2022-10-30T02:25:06.433Z,15.8
2022-10-30T02:27:08.254Z,15.8
2022-10-30T02:29:10.090Z,15.6
2022-10-30T02:31:15.158Z,15.7
2022-10-30T02:35:18.793Z,15.5
2022-10-30T02:37:47.432Z,15.4
2022-10-30T02:39:49.267Z,15.3
2022-10-30T02:41:51.106Z,15.4
2022-10-30T02:43:56.153Z,15.3
2022-10-30T02:45:57.981Z,15.3
2022-10-30T02:48:00.213Z,15.1
2022-10-30T02:56:07.112Z,15.3
2022-10-30T02:58:12.172Z,15.3
2022-10-30T03:00:13.995Z,15.2
2022-10-30T03:02:15.870Z,15.3
2022-10-30T03:10:23.075Z,15.4
2022-10-30T03:12:28.140Z,15.2
2022-10-30T03:14:29.964Z,15.2
2022-10-30T03:16:31.787Z,15.2
2022-10-30T03:18:33.605Z,15
2022-10-30T03:22:37.233Z,15.1
2022-10-30T03:26:44.124Z,15.2
2022-10-30T03:28:45.936Z,15.3
2022-10-30T03:30:47.755Z,15.1
2022-10-30T03:31:50.277Z,15.2
2022-10-30T03:33:52.102Z,15.2
2022-10-30T03:35:53.954Z,15.2
2022-10-30T03:37:55.769Z,15.1
2022-10-30T03:40:00.844Z,15.2
2022-10-30T03:42:02.652Z,15.2
2022-10-30T03:44:04.489Z,15.2
2022-10-30T03:46:06.311Z,15.3
2022-10-30T03:48:08.136Z,15.1
2022-10-30T03:50:09.960Z,15.1
2022-10-30T03:52:11.758Z,15.2
2022-10-30T03:54:16.828Z,15
2022-10-30T03:56:18.645Z,15.2
2022-10-30T03:58:20.456Z,15.1
2022-10-30T04:00:22.260Z,15.1
2022-10-30T04:02:24.087Z,15.1
2022-10-30T04:04:25.907Z,14.8
2022-10-30T04:06:27.717Z,14.9
2022-10-30T04:10:34.706Z,14.9
2022-10-30T04:12:36.433Z,14.8
2022-10-30T04:14:38.240Z,14.9
2022-10-30T04:18:41.869Z,14.9
2022-10-30T04:20:43.684Z,14.7
2022-10-30T04:22:48.750Z,14.8
2022-10-30T04:24:50.587Z,14.7
2022-10-30T04:26:52.394Z,14.7
2022-10-30T04:27:55.293Z,14.6
2022-10-30T04:29:56.766Z,14.7
2022-10-30T04:31:58.624Z,14.8
2022-10-30T04:34:00.382Z,14.6
2022-10-30T04:36:05.476Z,14.6
2022-10-30T04:38:07.317Z,14.6
2022-10-30T04:40:09.107Z,14.6
2022-10-30T04:42:10.925Z,14.8
2022-10-30T04:44:12.767Z,14.7
2022-10-30T04:46:14.595Z,14.7
2022-10-30T04:48:16.394Z,14.6
2022-10-30T04:50:21.468Z,14.6
2022-10-30T04:52:23.277Z,14.6
2022-10-30T04:56:26.928Z,14.5
2022-10-30T04:58:28.752Z,14.4
2022-10-30T05:02:32.548Z,14.3
2022-10-30T05:08:41.036Z,14.4
2022-10-30T05:10:42.847Z,14.4
2022-10-30T05:12:44.657Z,14.3
2022-10-30T05:16:48.287Z,14.4
2022-10-30T05:18:53.331Z,14.4
2022-10-30T05:20:55.159Z,14.3
2022-10-30T05:22:56.961Z,14.3
2022-10-30T05:23:59.490Z,14.3
2022-10-30T05:26:01.323Z,14.4
2022-10-30T05:28:03.126Z,14.3
2022-10-30T05:30:04.939Z,14.2
2022-10-30T05:32:10.046Z,14.2
2022-10-30T05:34:11.799Z,14.3
2022-10-30T05:36:13.620Z,14.3
2022-10-30T05:38:15.411Z,14
2022-10-30T05:40:17.216Z,14.2
2022-10-30T05:44:34.188Z,13.9
2022-10-30T05:46:26.238Z,13.9
2022-10-30T05:50:29.538Z,13.9
2022-10-30T05:52:31.352Z,14
2022-10-30T05:54:33.140Z,13.9
2022-10-30T05:56:34.946Z,14
2022-10-30T05:58:36.782Z,13.9
2022-10-30T06:00:41.826Z,14
2022-10-30T06:02:43.703Z,13.8
2022-10-30T06:04:45.462Z,13.8
2022-10-30T06:06:47.246Z,13.8
2022-10-30T06:08:49.076Z,13.8
2022-10-30T06:10:50.885Z,13.7
2022-10-30T06:12:52.693Z,13.7
2022-10-30T06:14:57.740Z,13.6
2022-10-30T06:16:59.554Z,13.7
2022-10-30T06:19:01.366Z,13.6
2022-10-30T06:21:30.015Z,13.9
2022-10-30T06:23:31.822Z,13.8
2022-10-30T06:25:39.413Z,13.9
2022-10-30T06:27:38.692Z,13.7
2022-10-30T06:29:40.492Z,13.7
2022-10-30T06:31:42.296Z,13.7
2022-10-30T06:33:44.105Z,13.9
2022-10-30T06:35:45.916Z,13.8
2022-10-30T06:37:47.742Z,13.8
2022-10-30T06:39:49.563Z,13.8
2022-10-30T06:41:54.603Z,13.7
2022-10-30T06:43:56.421Z,13.8
2022-10-30T06:45:58.284Z,13.8
2022-10-30T06:48:00.421Z,13.8
2022-10-30T06:50:01.883Z,13.7
2022-10-30T06:52:03.666Z,13.7
2022-10-30T06:56:12.037Z,13.8
2022-10-30T06:58:13.850Z,14
2022-10-30T07:00:15.641Z,13.8
2022-10-30T07:02:17.556Z,13.8
2022-10-30T07:04:19.270Z,14
2022-10-30T07:06:21.067Z,13.9
2022-10-30T07:08:22.888Z,14
2022-10-30T07:10:27.932Z,13.9
2022-10-30T07:14:31.551Z,13.8
2022-10-30T07:15:34.143Z,13.9
2022-10-30T07:17:35.870Z,14
2022-10-30T07:19:37.685Z,14.1
2022-10-30T07:21:39.496Z,14.1
2022-10-30T07:23:44.541Z,14.2
2022-10-30T07:25:46.351Z,14.2
2022-10-30T07:27:48.194Z,14.3
2022-10-30T07:32:02.115Z,14.5
2022-10-30T07:33:53.593Z,14.5
2022-10-30T07:35:55.412Z,14.6
2022-10-30T07:38:00.458Z,14.8
2022-10-30T07:40:02.282Z,14.7
2022-10-30T07:42:04.076Z,14.9
2022-10-30T07:44:05.875Z,15
2022-10-30T07:46:07.698Z,15.3
2022-10-30T07:48:09.508Z,16.6
2022-10-30T07:50:11.314Z,17.4
2022-10-30T07:52:17.289Z,17.7
2022-10-30T07:54:18.188Z,17.6
2022-10-30T07:56:20.013Z,17.7
2022-10-30T07:58:21.825Z,17.6
2022-10-30T08:00:23.620Z,17.6
2022-10-30T08:02:25.635Z,17.4
2022-10-30T08:04:27.261Z,18.2
2022-10-30T08:06:32.337Z,19.9
2022-10-30T08:08:36.701Z,20.1
2022-10-30T08:10:35.972Z,19.7
2022-10-30T08:11:38.496Z,19.5
2022-10-30T08:13:40.350Z,19.4
2022-10-30T08:15:42.150Z,19.6
2022-10-30T08:17:43.978Z,20
2022-10-30T08:25:54.545Z,19
2022-10-30T08:27:56.397Z,19.2
2022-10-30T08:29:58.207Z,19.6
2022-10-30T08:38:08.776Z,20.9
2022-10-30T08:40:10.627Z,20.7
2022-10-30T08:42:12.446Z,20.9
2022-10-30T08:44:14.268Z,21.3
2022-10-30T08:48:21.206Z,21.9
2022-10-30T08:50:23.045Z,22
2022-10-30T08:52:24.845Z,21.3
2022-10-30T08:56:28.548Z,21
2022-10-30T08:58:30.399Z,21.2
2022-10-30T09:00:32.225Z,21.2
2022-10-30T09:02:37.377Z,21.8
2022-10-30T09:04:39.132Z,22.1
2022-10-30T09:06:40.982Z,22.8
2022-10-30T09:07:43.515Z,22.9
2022-10-30T09:09:45.338Z,22.6
2022-10-30T09:11:47.184Z,22.8
2022-10-30T09:13:49.002Z,23.1
2022-10-30T09:15:54.089Z,24
2022-10-30T09:17:56.214Z,24
2022-10-30T09:19:57.728Z,23.9
2022-10-30T09:21:59.549Z,24.8
2022-10-30T09:24:01.369Z,24.9
2022-10-30T09:26:03.192Z,24.7
2022-10-30T09:28:04.903Z,24.4
2022-10-30T09:34:13.326Z,23.7
2022-10-30T09:36:18.062Z,24.5
2022-10-30T09:38:16.686Z,24.5
2022-10-30T09:40:18.385Z,24.3
2022-10-30T09:42:20.105Z,24.2
2022-10-30T09:44:25.001Z,24.2
2022-10-30T09:46:26.704Z,24.3
2022-10-30T09:48:28.393Z,24.3
2022-10-30T09:50:31.368Z,24.7
2022-10-30T09:52:31.826Z,25.2
2022-10-30T09:54:33.546Z,25
2022-10-30T09:56:35.742Z,24.8
2022-10-30T09:58:40.132Z,24.7
2022-10-30T10:00:41.840Z,24.5
2022-10-30T10:02:43.703Z,24.3
2022-10-30T10:05:11.936Z,24.7
2022-10-30T10:07:13.633Z,24.6
2022-10-30T10:09:15.340Z,24.8
2022-10-30T10:11:20.200Z,25.7
2022-10-30T10:13:21.913Z,25.5
2022-10-30T10:17:25.286Z,24.9
2022-10-30T10:19:27.006Z,24.8
2022-10-30T10:21:28.696Z,24.8
2022-10-30T10:25:35.276Z,25.1
2022-10-30T10:29:38.680Z,25.9
2022-10-30T10:35:43.745Z,26.3
2022-10-30T10:37:45.456Z,26.1
2022-10-30T10:43:53.675Z,25
2022-10-30T10:47:57.434Z,23.2
2022-10-30T10:49:58.744Z,23.1
2022-10-30T10:52:00.407Z,23.9
2022-10-30T10:54:05.289Z,23.9
2022-10-30T10:56:06.962Z,24
2022-10-30T10:58:08.660Z,24.4
2022-10-30T10:59:11.100Z,24.7
2022-10-30T11:01:12.803Z,24.6
2022-10-30T11:03:14.490Z,25.3
2022-10-30T11:05:16.163Z,25.1
2022-10-30T11:07:21.028Z,25.5
2022-10-30T11:09:22.707Z,26.1
2022-10-30T11:11:24.388Z,26
2022-10-30T11:13:26.064Z,25.5
2022-10-30T11:15:27.757Z,26.1
2022-10-30T11:17:29.442Z,26.2
2022-10-30T11:19:31.111Z,25.5
2022-10-30T11:21:35.982Z,25.1
2022-10-30T11:23:37.634Z,25.2
2022-10-30T11:25:39.318Z,25.4
2022-10-30T11:27:41.017Z,25.6
2022-10-30T11:29:42.705Z,25.8
2022-10-30T11:31:44.372Z,25.1
2022-10-30T11:33:46.048Z,23.9
2022-10-30T11:35:50.889Z,24.2
2022-10-30T11:39:54.240Z,24.7
2022-10-30T11:41:55.933Z,25.3
2022-10-30T11:43:57.611Z,25.1
2022-10-30T11:45:59.285Z,23.8
2022-10-30T11:48:02.841Z,23.8
2022-10-30T11:50:05.812Z,24.2
2022-10-30T11:52:07.489Z,24.4
2022-10-30T11:54:09.177Z,25.3
2022-10-30T11:55:11.601Z,26.1
2022-10-30T11:57:13.287Z,26.3
2022-10-30T11:59:14.969Z,26.5
2022-10-30T12:01:16.703Z,26.9
2022-10-30T12:03:21.493Z,27.2
2022-10-30T12:05:23.159Z,27
2022-10-30T12:07:24.857Z,26.2
2022-10-30T12:09:26.541Z,26.1
2022-10-30T12:11:28.206Z,26.5
2022-10-30T12:17:36.423Z,25.9
2022-10-30T12:19:38.090Z,26
2022-10-30T12:25:43.126Z,24.2
2022-10-30T12:27:44.780Z,24.2
2022-10-30T12:33:52.988Z,24.1
2022-10-30T12:35:54.678Z,24.5
2022-10-30T12:37:56.545Z,24.6
2022-10-30T12:44:01.403Z,25.1
2022-10-30T12:46:07.781Z,25
2022-10-30T12:48:09.467Z,24.6
2022-10-30T12:50:11.169Z,24.6
2022-10-30T12:51:15.922Z,24.3
2022-10-30T12:53:15.238Z,24.4
2022-10-30T12:55:16.930Z,24.5
2022-10-30T12:57:18.595Z,24.2
2022-10-30T12:59:23.450Z,23.4
2022-10-30T13:01:25.214Z,23.2
2022-10-30T13:03:26.824Z,22.9
2022-10-30T13:05:28.509Z,22.7
2022-10-30T13:07:30.211Z,22.7
2022-10-30T13:09:31.886Z,22.5
2022-10-30T13:11:33.578Z,22.3
2022-10-30T13:13:38.450Z,22.3
2022-10-30T13:15:40.147Z,22.2
2022-10-30T13:17:41.835Z,22.3
2022-10-30T13:19:43.537Z,22.2
2022-10-30T13:21:45.228Z,22.3
2022-10-30T13:23:46.909Z,22.1
2022-10-30T13:25:48.614Z,22.1
2022-10-30T13:27:53.478Z,22.3
2022-10-30T13:29:55.168Z,22.1
2022-10-30T13:31:56.889Z,22.4
2022-10-30T13:33:58.567Z,22.4
2022-10-30T13:40:03.651Z,21.9
2022-10-30T13:46:11.932Z,22.5
2022-10-30T13:48:40.338Z,22.5
2022-10-30T13:50:42.031Z,22.5
2022-10-30T13:52:43.762Z,22.8
2022-10-30T13:54:48.592Z,22.7
2022-10-30T13:56:50.298Z,22.9
2022-10-30T13:58:51.993Z,22.6
2022-10-30T14:00:53.686Z,22.5
2022-10-30T14:02:55.548Z,22.5
2022-10-30T14:04:57.082Z,22.4
2022-10-30T14:06:58.800Z,22.3
2022-10-30T14:09:03.678Z,21.9
2022-10-30T14:11:05.390Z,21.8
2022-10-30T14:13:07.065Z,21.8
2022-10-30T14:15:08.771Z,21.6
2022-10-30T14:17:10.485Z,21.4
2022-10-30T14:19:12.202Z,21.5
2022-10-30T14:21:13.903Z,21.4
2022-10-30T14:23:18.762Z,21.3
2022-10-30T14:25:20.469Z,21.2
2022-10-30T14:27:22.183Z,21.2
2022-10-30T14:29:23.937Z,21
2022-10-30T14:31:25.648Z,21.1
2022-10-30T14:33:27.354Z,20.9
2022-10-30T14:35:29.091Z,20.9
2022-10-30T14:37:33.961Z,20.8
2022-10-30T14:39:35.651Z,20.7
2022-10-30T14:41:37.379Z,20.8
2022-10-30T14:42:39.814Z,20.7
2022-10-30T14:44:41.651Z,20.7
2022-10-30T14:46:43.449Z,20.6
2022-10-30T14:48:45.175Z,20.7
2022-10-30T14:50:50.050Z,20.8
2022-10-30T14:52:51.766Z,20.7
2022-10-30T14:54:53.479Z,20.7
2022-10-30T14:56:55.196Z,20.7
2022-10-30T14:58:56.932Z,20.8
2022-10-30T15:00:58.683Z,20.6
2022-10-30T15:05:08.718Z,20.7
2022-10-30T15:07:07.064Z,20.8
2022-10-30T15:09:08.777Z,20.6
2022-10-30T15:11:12.905Z,20.7
2022-10-30T15:13:12.428Z,20.7
2022-10-30T15:15:14.132Z,20.7
2022-10-30T15:17:15.851Z,20.6
2022-10-30T15:19:20.737Z,20.6
2022-10-30T15:21:22.442Z,20.6
2022-10-30T15:23:24.168Z,20.5
2022-10-30T15:25:25.890Z,20.5
2022-10-30T15:27:27.605Z,20.5
2022-10-30T15:31:31.267Z,20.2
2022-10-30T15:33:36.351Z,20.3
2022-10-30T15:35:38.074Z,20.1
2022-10-30T15:37:39.909Z,20.1
2022-10-30T15:38:42.428Z,20
2022-10-30T15:46:52.790Z,19.7
2022-10-30T15:55:00.143Z,19.6
2022-10-30T15:57:42.779Z,19.4
2022-10-30T15:59:03.766Z,19.4
2022-10-30T16:03:10.698Z,19.5
2022-10-30T16:05:12.532Z,19.4
2022-10-30T16:13:19.839Z,19.2
2022-10-30T16:15:24.960Z,19.1
2022-10-30T16:17:26.749Z,19
2022-10-30T16:19:29.289Z,18.9
2022-10-30T16:21:30.390Z,19
2022-10-30T16:23:32.218Z,18.9
2022-10-30T16:25:34.067Z,18.8
2022-10-30T16:27:35.873Z,18.7
2022-10-30T16:29:40.956Z,18.6
2022-10-30T16:31:42.704Z,18.7
2022-10-30T16:33:44.589Z,18.7
2022-10-30T16:36:48.909Z,18.7
2022-10-30T16:38:50.730Z,18.7
2022-10-30T16:40:52.569Z,18.6
2022-10-30T16:44:59.399Z,18.5
2022-10-30T16:49:03.045Z,18.4
2022-10-30T16:51:04.890Z,18.4
2022-10-30T16:53:06.699Z,18.5
2022-10-30T16:55:08.676Z,18.3
2022-10-30T16:57:13.621Z,18.3
2022-10-30T16:59:15.445Z,18.3
2022-10-30T17:01:17.547Z,18.2
2022-10-30T17:03:19.125Z,18.2
2022-10-30T17:05:20.948Z,18.2
2022-10-30T17:07:22.789Z,18
2022-10-30T17:09:24.605Z,18.3
2022-10-30T17:11:29.703Z,18.1
2022-10-30T17:13:31.532Z,18.2
2022-10-30T17:15:33.363Z,18.2
2022-10-30T17:17:35.210Z,18.1
2022-10-30T17:19:37.026Z,18.3
2022-10-30T17:21:38.877Z,18.3
2022-10-30T17:23:40.694Z,18.2
2022-10-30T17:25:45.775Z,18.1
2022-10-30T17:27:47.671Z,18.2
2022-10-30T17:29:49.449Z,18.2
2022-10-30T17:32:18.094Z,18.1
2022-10-30T17:34:19.930Z,18.2
2022-10-30T17:36:21.804Z,18.3
2022-10-30T17:38:26.852Z,18.1
2022-10-30T17:40:28.678Z,18.1
2022-10-30T17:42:30.518Z,18.2
2022-10-30T17:44:32.347Z,18.1
2022-10-30T17:46:34.149Z,18.2
2022-10-30T17:48:35.988Z,18.1
2022-10-30T17:50:37.968Z,18.1
2022-10-30T17:52:42.920Z,17.9
2022-10-30T17:54:44.740Z,17.9
2022-10-30T17:56:46.582Z,17.9
2022-10-30T17:58:48.387Z,18
2022-10-30T18:00:50.540Z,17.9
2022-10-30T18:02:52.055Z,17.9
2022-10-30T18:04:53.887Z,18
2022-10-30T18:06:58.881Z,17.7
2022-10-30T18:09:00.719Z,17.8
2022-10-30T18:11:02.693Z,17.8
2022-10-30T18:13:04.369Z,17.7
2022-10-30T18:15:06.213Z,17.7
2022-10-30T18:17:08.032Z,17.6
2022-10-30T18:19:09.863Z,17.7
2022-10-30T18:21:14.933Z,17.5
2022-10-30T18:23:38.753Z,17.7
2022-10-30T18:25:18.605Z,17.7
2022-10-30T18:26:21.143Z,17.6
2022-10-30T18:28:22.962Z,17.5
2022-10-30T18:30:24.789Z,17.7
2022-10-30T18:32:26.625Z,17.4
2022-10-30T18:34:33.291Z,17.5
2022-10-30T18:36:35.067Z,17.4
2022-10-30T18:38:36.871Z,17.5
2022-10-30T18:40:38.690Z,17.4
2022-10-30T18:42:40.531Z,17.5
2022-10-30T18:44:42.358Z,17.4
2022-10-30T18:46:44.200Z,17.3
2022-10-30T18:48:49.283Z,17.3
2022-10-30T18:50:51.103Z,17.1
2022-10-30T18:52:52.971Z,17.3
2022-10-30T18:54:54.773Z,17.2
2022-10-30T18:56:56.595Z,17.3
2022-10-30T18:59:01.819Z,17.3
2022-10-30T19:01:11.839Z,17.1
2022-10-30T19:03:05.359Z,17.1
2022-10-30T19:05:07.163Z,17.2
2022-10-30T19:07:08.991Z,17.2
2022-10-30T19:09:10.844Z,17.1
2022-10-30T19:13:14.860Z,17
2022-10-30T19:15:16.325Z,16.9
2022-10-30T19:21:25.096Z,16.9
2022-10-30T19:22:27.628Z,16.9
2022-10-30T19:24:29.466Z,16.7
2022-10-30T19:26:31.283Z,16.9
2022-10-30T19:28:33.134Z,16.8
2022-10-30T19:30:38.217Z,16.8
2022-10-30T19:32:40.050Z,16.8
2022-10-30T19:34:41.894Z,16.7
2022-10-30T19:36:43.712Z,16.6
2022-10-30T19:38:45.538Z,16.6
2022-10-30T19:40:47.365Z,16.7
2022-10-30T19:42:49.205Z,16.5
2022-10-30T19:44:54.273Z,16.5
2022-10-30T19:46:56.101Z,16.4
2022-10-30T19:48:58.997Z,16.4
2022-10-30T19:50:59.802Z,16.3
2022-10-30T19:53:02.060Z,16.3
2022-10-30T19:55:03.440Z,16.3
2022-10-30T19:57:05.325Z,16.2
2022-10-30T19:59:10.360Z,16.3
2022-10-30T20:01:12.272Z,16.3
2022-10-30T20:03:14.007Z,16.2
2022-10-30T20:05:15.842Z,16.3
2022-10-30T20:07:17.680Z,16.1
2022-10-30T20:09:19.498Z,16.1
2022-10-30T20:11:21.339Z,16.2
2022-10-30T20:13:26.412Z,16.2
2022-10-30T20:15:28.227Z,16.1
2022-10-30T20:17:30.050Z,16
2022-10-30T20:22:36.242Z,15.9
2022-10-30T20:30:46.776Z,15.9
2022-10-30T20:32:48.590Z,15.8
2022-10-30T20:49:17.033Z,15.9
2022-10-30T20:55:15.210Z,15.9
2022-10-30T20:57:16.956Z,15.8
2022-10-30T20:59:18.761Z,15.8
2022-10-30T21:01:20.753Z,15.6
2022-10-30T21:03:22.395Z,15.8
2022-10-30T21:05:42.721Z,15.7
2022-10-30T21:07:26.055Z,15.9
2022-10-30T21:09:31.108Z,15.6
2022-10-30T21:11:32.924Z,15.6
2022-10-30T21:13:34.777Z,15.6
2022-10-30T21:16:03.395Z,15.7
2022-10-30T21:18:05.200Z,15.8
2022-10-30T21:20:07.017Z,15.6
2022-10-30T21:22:12.091Z,15.6
2022-10-30T21:24:13.896Z,15.4
2022-10-30T21:26:15.726Z,15.5
2022-10-30T21:28:17.559Z,15.5
2022-10-30T21:30:19.375Z,15.4
2022-10-30T21:32:21.199Z,15.4
2022-10-30T21:34:23.028Z,15.5
2022-10-30T21:36:28.087Z,15.5
2022-10-30T21:38:29.887Z,15.3
2022-10-30T21:40:31.741Z,15.4
2022-10-30T21:42:33.567Z,15.3
2022-10-30T21:44:35.362Z,15.4
2022-10-30T21:46:37.193Z,15.4
2022-10-30T21:48:39.018Z,15.3
2022-10-30T21:50:44.083Z,15.3
2022-10-30T21:52:45.898Z,15.1
2022-10-30T21:54:47.723Z,15.2
2022-10-30T21:56:49.530Z,15.1
2022-10-30T21:58:51.379Z,15.2
2022-10-30T22:00:53.224Z,15.3
2022-10-30T22:02:55.017Z,15.2
2022-10-30T22:09:03.743Z,15.3
2022-10-30T22:10:06.250Z,15.1
2022-10-30T22:12:08.054Z,15.3
2022-10-30T22:14:09.888Z,15
2022-10-30T22:16:11.703Z,15.1
2022-10-30T22:18:16.778Z,15.1
2022-10-30T22:20:18.599Z,15.1
2022-10-30T22:22:20.411Z,14.9
2022-10-30T22:24:22.222Z,15
2022-10-30T22:26:24.059Z,14.8
2022-10-30T22:28:25.876Z,14.8
2022-10-30T22:30:27.680Z,14.8
2022-10-30T22:32:32.748Z,14.9
2022-10-30T22:34:34.567Z,14.8
2022-10-30T22:36:36.387Z,14.7
2022-10-30T22:38:38.195Z,14.8
2022-10-30T22:40:40.010Z,14.8
2022-10-30T22:42:41.847Z,14.6
2022-10-30T22:44:43.663Z,14.8
2022-10-30T22:46:48.776Z,14.7
2022-10-30T22:48:50.577Z,14.5
2022-10-30T22:50:52.379Z,14.7
2022-10-30T22:52:54.194Z,14.5
2022-10-30T22:54:56.027Z,14.5
2022-10-30T22:56:57.850Z,14.5
2022-10-30T22:58:59.653Z,14.2
2022-10-30T23:01:04.864Z,14.2
2022-10-30T23:03:06.558Z,14.2
2022-10-30T23:05:08.345Z,14
2022-10-30T23:06:10.868Z,14
2022-10-30T23:08:12.734Z,14.1
2022-10-30T23:10:14.491Z,14
2022-10-30T23:12:16.318Z,14.1
2022-10-30T23:14:21.351Z,14
2022-10-30T23:16:23.189Z,14
2022-10-30T23:18:25.004Z,14.1
2022-10-30T23:20:26.857Z,14
2022-10-30T23:22:28.605Z,13.9
2022-10-30T23:24:30.414Z,14
2022-10-30T23:26:32.224Z,13.9
2022-10-30T23:28:37.291Z,14
2022-10-30T23:30:39.212Z,14.1
2022-10-30T23:32:40.913Z,14
2022-10-30T23:34:42.703Z,13.9
2022-10-30T23:36:44.517Z,13.9
2022-10-30T23:38:46.333Z,14
2022-10-30T23:40:48.157Z,13.9
2022-10-30T23:42:53.184Z,13.7
2022-10-30T23:44:54.995Z,13.9
2022-10-30T23:46:56.798Z,13.7
2022-10-30T23:48:58.606Z,13.8
2022-10-30T23:51:00.416Z,13.7
2022-10-30T23:53:02.229Z,13.6
2022-10-30T23:55:04.020Z,13.8
2022-10-30T23:57:09.060Z,13.7
2022-10-30T23:59:10.888Z,13.6
